sensor_id;sensor_type;location;lat;lon;timestamp;temperature;humidity
15217;DHT22;7711;46.634;14.318;2023-06-24T00:00:58;14.90;1.00
15217;DHT22;7711;46.634;14.318;2023-06-24T00:03:26;14.90;1.00
15217;DHT22;7711;46.634;14.318;2023-06-24T00:05:53;14.90;1.00
15217;DHT22;7711;46.634;14.318;2023-06-24T00:08:22;14.90;1.00
15217;DHT22;7711;46.634;14.318;2023-06-24T00:11:00;15.00;1.00
15217;DHT22;7711;46.634;14.318;2023-06-24T00:13:28;14.90;1.00
15217;DHT22;7711;46.634;14.318;2023-06-24T00:15:55;14.90;1.00
15217;DHT22;7711;46.634;14.318;2023-06-24T00:18:24;14.90;1.00
15217;DHT22;7711;46.634;14.318;2023-06-24T00:20:55;14.90;1.00
15217;DHT22;7711;46.634;14.318;2023-06-24T00:23:23;14.80;1.00
15217;DHT22;7711;46.634;14.318;2023-06-24T00:25:51;14.80;45.40
15217;DHT22;7711;46.634;14.318;2023-06-24T00:28:19;14.70;1.00
15217;DHT22;7711;46.634;14.318;2023-06-24T00:30:47;14.70;1.00
15217;DHT22;7711;46.634;14.318;2023-06-24T00:33:14;14.60;1.00
15217;DHT22;7711;46.634;14.318;2023-06-24T00:35:43;14.50;1.00
15217;DHT22;7711;46.634;14.318;2023-06-24T00:38:10;14.50;1.00
15217;DHT22;7711;46.634;14.318;2023-06-24T00:40:38;14.40;99.90
15217;DHT22;7711;46.634;14.318;2023-06-24T00:43:06;14.40;12.80
15217;DHT22;7711;46.634;14.318;2023-06-24T00:45:34;14.40;1.00
15217;DHT22;7711;46.634;14.318;2023-06-24T00:48:01;14.30;1.00
15217;DHT22;7711;46.634;14.318;2023-06-24T00:50:29;14.30;99.90
15217;DHT22;7711;46.634;14.318;2023-06-24T00:52:57;14.30;99.90
15217;DHT22;7711;46.634;14.318;2023-06-24T00:55:25;14.20;99.90
15217;DHT22;7711;46.634;14.318;2023-06-24T00:57:55;14.30;99.90
15217;DHT22;7711;46.634;14.318;2023-06-24T01:00:23;14.30;1.00
15217;DHT22;7711;46.634;14.318;2023-06-24T01:02:51;14.30;99.90
15217;DHT22;7711;46.634;14.318;2023-06-24T01:05:18;14.30;1.00
15217;DHT22;7711;46.634;14.318;2023-06-24T01:07:49;14.30;99.90
15217;DHT22;7711;46.634;14.318;2023-06-24T01:10:23;14.20;1.00
15217;DHT22;7711;46.634;14.318;2023-06-24T01:12:50;14.20;1.00
15217;DHT22;7711;46.634;14.318;2023-06-24T01:15:18;14.30;1.00
15217;DHT22;7711;46.634;14.318;2023-06-24T01:17:52;14.30;99.90
15217;DHT22;7711;46.634;14.318;2023-06-24T01:20:23;14.30;99.90
15217;DHT22;7711;46.634;14.318;2023-06-24T01:26:35;14.40;99.90
15217;DHT22;7711;46.634;14.318;2023-06-24T01:29:40;14.50;1.00
15217;DHT22;7711;46.634;14.318;2023-06-24T01:32:18;14.40;1.00
15217;DHT22;7711;46.634;14.318;2023-06-24T01:34:52;14.50;1.00
15217;DHT22;7711;46.634;14.318;2023-06-24T01:37:26;14.50;1.00
15217;DHT22;7711;46.634;14.318;2023-06-24T01:40:07;14.50;1.00
15217;DHT22;7711;46.634;14.318;2023-06-24T01:42:38;14.50;1.00
15217;DHT22;7711;46.634;14.318;2023-06-24T01:45:08;14.40;1.00
15217;DHT22;7711;46.634;14.318;2023-06-24T01:47:38;14.40;1.00
15217;DHT22;7711;46.634;14.318;2023-06-24T01:50:07;14.40;1.00
15217;DHT22;7711;46.634;14.318;2023-06-24T01:52:38;14.30;1.00
15217;DHT22;7711;46.634;14.318;2023-06-24T01:55:09;14.40;99.90
15217;DHT22;7711;46.634;14.318;2023-06-24T01:57:39;14.40;99.90
15217;DHT22;7711;46.634;14.318;2023-06-24T02:00:08;14.40;99.90
15217;DHT22;7711;46.634;14.318;2023-06-24T02:02:38;14.40;54.70
15217;DHT22;7711;46.634;14.318;2023-06-24T02:05:07;14.40;1.00
15217;DHT22;7711;46.634;14.318;2023-06-24T02:07:35;14.30;1.00
15217;DHT22;7711;46.634;14.318;2023-06-24T02:10:04;14.30;1.00
15217;DHT22;7711;46.634;14.318;2023-06-24T02:12:32;14.40;22.40
15217;DHT22;7711;46.634;14.318;2023-06-24T02:15:00;14.40;1.00
15217;DHT22;7711;46.634;14.318;2023-06-24T02:17:30;14.30;1.00
15217;DHT22;7711;46.634;14.318;2023-06-24T02:19:59;14.30;99.90
15217;DHT22;7711;46.634;14.318;2023-06-24T02:22:27;14.20;99.90
15217;DHT22;7711;46.634;14.318;2023-06-24T02:24:55;14.20;1.00
15217;DHT22;7711;46.634;14.318;2023-06-24T02:27:23;14.20;99.90
15217;DHT22;7711;46.634;14.318;2023-06-24T02:29:52;14.10;1.00
15217;DHT22;7711;46.634;14.318;2023-06-24T02:32:19;14.20;1.00
15217;DHT22;7711;46.634;14.318;2023-06-24T02:34:47;14.20;1.00
15217;DHT22;7711;46.634;14.318;2023-06-24T02:37:16;14.20;1.00
15217;DHT22;7711;46.634;14.318;2023-06-24T02:39:43;14.20;1.00
15217;DHT22;7711;46.634;14.318;2023-06-24T02:42:11;14.30;1.00
15217;DHT22;7711;46.634;14.318;2023-06-24T02:44:38;14.30;1.00
15217;DHT22;7711;46.634;14.318;2023-06-24T02:47:09;14.40;1.00
15217;DHT22;7711;46.634;14.318;2023-06-24T02:49:37;14.30;99.90
15217;DHT22;7711;46.634;14.318;2023-06-24T02:52:06;14.30;1.00
15217;DHT22;7711;46.634;14.318;2023-06-24T02:54:36;14.30;1.00
15217;DHT22;7711;46.634;14.318;2023-06-24T02:57:05;14.10;1.00
15217;DHT22;7711;46.634;14.318;2023-06-24T02:59:33;14.10;1.00
15217;DHT22;7711;46.634;14.318;2023-06-24T03:02:02;14.10;99.90
15217;DHT22;7711;46.634;14.318;2023-06-24T03:04:29;14.10;99.90
15217;DHT22;7711;46.634;14.318;2023-06-24T03:06:57;14.10;1.00
15217;DHT22;7711;46.634;14.318;2023-06-24T03:09:26;14.10;1.00
15217;DHT22;7711;46.634;14.318;2023-06-24T03:11:55;14.10;1.00
15217;DHT22;7711;46.634;14.318;2023-06-24T03:14:22;14.20;99.90
15217;DHT22;7711;46.634;14.318;2023-06-24T03:16:50;14.30;1.00
15217;DHT22;7711;46.634;14.318;2023-06-24T03:19:18;14.20;1.00
15217;DHT22;7711;46.634;14.318;2023-06-24T03:21:45;14.30;1.00
15217;DHT22;7711;46.634;14.318;2023-06-24T03:24:13;14.20;99.90
15217;DHT22;7711;46.634;14.318;2023-06-24T03:26:40;14.20;99.90
15217;DHT22;7711;46.634;14.318;2023-06-24T03:29:09;14.30;99.90
15217;DHT22;7711;46.634;14.318;2023-06-24T03:31:37;14.30;95.40
15217;DHT22;7711;46.634;14.318;2023-06-24T03:34:11;14.30;99.90
15217;DHT22;7711;46.634;14.318;2023-06-24T03:36:39;14.40;53.50
15217;DHT22;7711;46.634;14.318;2023-06-24T03:39:06;14.20;99.90
15217;DHT22;7711;46.634;14.318;2023-06-24T03:41:34;14.20;1.00
15217;DHT22;7711;46.634;14.318;2023-06-24T03:44:01;14.30;99.90
15217;DHT22;7711;46.634;14.318;2023-06-24T03:46:31;14.30;99.90
15217;DHT22;7711;46.634;14.318;2023-06-24T03:48:59;14.20;1.00
15217;DHT22;7711;46.634;14.318;2023-06-24T03:51:26;14.20;34.30
15217;DHT22;7711;46.634;14.318;2023-06-24T03:53:53;14.00;1.00
15217;DHT22;7711;46.634;14.318;2023-06-24T03:56:21;14.20;1.00
15217;DHT22;7711;46.634;14.318;2023-06-24T03:58:49;14.30;1.00
15217;DHT22;7711;46.634;14.318;2023-06-24T04:01:16;14.40;99.90
15217;DHT22;7711;46.634;14.318;2023-06-24T04:03:46;14.40;99.90
15217;DHT22;7711;46.634;14.318;2023-06-24T04:06:13;14.40;99.90
15217;DHT22;7711;46.634;14.318;2023-06-24T04:08:41;14.40;99.90
15217;DHT22;7711;46.634;14.318;2023-06-24T04:11:10;14.40;91.50
15217;DHT22;7711;46.634;14.318;2023-06-24T04:13:37;14.50;78.70
15217;DHT22;7711;46.634;14.318;2023-06-24T04:16:05;14.50;99.90
15217;DHT22;7711;46.634;14.318;2023-06-24T04:18:33;14.60;99.90
15217;DHT22;7711;46.634;14.318;2023-06-24T04:21:04;14.60;99.90
15217;DHT22;7711;46.634;14.318;2023-06-24T04:23:32;14.60;1.00
15217;DHT22;7711;46.634;14.318;2023-06-24T04:25:59;14.60;1.00
15217;DHT22;7711;46.634;14.318;2023-06-24T04:28:26;14.60;1.00
15217;DHT22;7711;46.634;14.318;2023-06-24T04:30:54;14.60;1.00
15217;DHT22;7711;46.634;14.318;2023-06-24T04:33:22;14.60;1.00
15217;DHT22;7711;46.634;14.318;2023-06-24T04:35:50;14.50;1.00
15217;DHT22;7711;46.634;14.318;2023-06-24T04:38:19;14.50;6.00
15217;DHT22;7711;46.634;14.318;2023-06-24T04:40:46;14.50;1.00
15217;DHT22;7711;46.634;14.318;2023-06-24T04:43:14;14.60;1.00
15217;DHT22;7711;46.634;14.318;2023-06-24T04:45:41;14.60;1.00
15217;DHT22;7711;46.634;14.318;2023-06-24T04:48:08;14.60;1.00
15217;DHT22;7711;46.634;14.318;2023-06-24T04:50:35;14.70;1.00
15217;DHT22;7711;46.634;14.318;2023-06-24T04:53:02;14.70;1.00
15217;DHT22;7711;46.634;14.318;2023-06-24T04:55:32;14.60;99.90
15217;DHT22;7711;46.634;14.318;2023-06-24T04:57:59;14.70;1.00
15217;DHT22;7711;46.634;14.318;2023-06-24T05:00:26;14.60;1.00
15217;DHT22;7711;46.634;14.318;2023-06-24T05:02:54;14.70;1.00
15217;DHT22;7711;46.634;14.318;2023-06-24T05:05:21;14.70;1.00
15217;DHT22;7711;46.634;14.318;2023-06-24T05:07:48;14.80;1.00
15217;DHT22;7711;46.634;14.318;2023-06-24T05:10:15;14.90;99.90
15217;DHT22;7711;46.634;14.318;2023-06-24T05:12:45;14.90;99.90
15217;DHT22;7711;46.634;14.318;2023-06-24T05:15:12;15.00;99.90
15217;DHT22;7711;46.634;14.318;2023-06-24T05:17:39;15.10;99.90
15217;DHT22;7711;46.634;14.318;2023-06-24T05:20:07;15.10;31.50
15217;DHT22;7711;46.634;14.318;2023-06-24T05:22:35;15.10;1.00
15217;DHT22;7711;46.634;14.318;2023-06-24T05:25:02;14.90;1.00
15217;DHT22;7711;46.634;14.318;2023-06-24T05:27:29;14.90;80.40
15217;DHT22;7711;46.634;14.318;2023-06-24T05:29:58;15.00;1.00
15217;DHT22;7711;46.634;14.318;2023-06-24T05:32:25;15.10;30.90
15217;DHT22;7711;46.634;14.318;2023-06-24T05:34:53;15.20;1.00
15217;DHT22;7711;46.634;14.318;2023-06-24T05:37:20;15.30;1.00
15217;DHT22;7711;46.634;14.318;2023-06-24T05:39:46;15.40;1.00
15217;DHT22;7711;46.634;14.318;2023-06-24T05:42:14;15.40;1.00
15217;DHT22;7711;46.634;14.318;2023-06-24T05:44:41;15.30;1.00
15217;DHT22;7711;46.634;14.318;2023-06-24T05:47:09;15.20;1.00
15217;DHT22;7711;46.634;14.318;2023-06-24T05:49:36;15.30;1.00
15217;DHT22;7711;46.634;14.318;2023-06-24T05:52:04;15.40;1.00
15217;DHT22;7711;46.634;14.318;2023-06-24T05:54:32;15.40;1.00
15217;DHT22;7711;46.634;14.318;2023-06-24T05:56:59;15.50;1.00
15217;DHT22;7711;46.634;14.318;2023-06-24T05:59:26;15.60;1.00
15217;DHT22;7711;46.634;14.318;2023-06-24T06:01:53;15.80;1.00
15217;DHT22;7711;46.634;14.318;2023-06-24T06:04:22;15.70;1.00
15217;DHT22;7711;46.634;14.318;2023-06-24T06:06:49;15.50;1.00
15217;DHT22;7711;46.634;14.318;2023-06-24T06:09:16;15.60;1.00
15217;DHT22;7711;46.634;14.318;2023-06-24T06:11:43;15.90;1.00
15217;DHT22;7711;46.634;14.318;2023-06-24T06:14:10;15.90;1.00
15217;DHT22;7711;46.634;14.318;2023-06-24T06:16:37;15.70;1.00
15217;DHT22;7711;46.634;14.318;2023-06-24T06:19:04;15.80;1.00
15217;DHT22;7711;46.634;14.318;2023-06-24T06:21:33;16.00;1.00
15217;DHT22;7711;46.634;14.318;2023-06-24T06:24:00;16.00;1.00
15217;DHT22;7711;46.634;14.318;2023-06-24T06:26:27;15.90;1.00
15217;DHT22;7711;46.634;14.318;2023-06-24T06:28:54;16.00;1.00
15217;DHT22;7711;46.634;14.318;2023-06-24T06:31:21;16.10;1.00
15217;DHT22;7711;46.634;14.318;2023-06-24T06:33:48;16.30;1.00
15217;DHT22;7711;46.634;14.318;2023-06-24T06:36:15;16.40;1.00
15217;DHT22;7711;46.634;14.318;2023-06-24T06:38:44;16.40;1.00
15217;DHT22;7711;46.634;14.318;2023-06-24T06:41:11;16.50;1.00
15217;DHT22;7711;46.634;14.318;2023-06-24T06:43:38;16.90;1.00
15217;DHT22;7711;46.634;14.318;2023-06-24T06:46:05;17.20;99.90
15217;DHT22;7711;46.634;14.318;2023-06-24T06:48:32;17.00;99.90
15217;DHT22;7711;46.634;14.318;2023-06-24T06:50:59;17.10;99.90
15217;DHT22;7711;46.634;14.318;2023-06-24T06:53:26;17.20;99.90
15217;DHT22;7711;46.634;14.318;2023-06-24T06:55:55;17.30;99.90
15217;DHT22;7711;46.634;14.318;2023-06-24T06:58:22;17.20;99.90
15217;DHT22;7711;46.634;14.318;2023-06-24T07:00:49;17.10;99.90
15217;DHT22;7711;46.634;14.318;2023-06-24T07:03:16;17.10;99.90
15217;DHT22;7711;46.634;14.318;2023-06-24T07:05:42;17.10;99.90
15217;DHT22;7711;46.634;14.318;2023-06-24T07:08:09;17.30;99.90
15217;DHT22;7711;46.634;14.318;2023-06-24T07:10:36;17.50;99.90
15217;DHT22;7711;46.634;14.318;2023-06-24T07:13:05;17.60;99.90
15217;DHT22;7711;46.634;14.318;2023-06-24T07:15:31;18.00;99.90
15217;DHT22;7711;46.634;14.318;2023-06-24T07:17:58;18.40;99.90
15217;DHT22;7711;46.634;14.318;2023-06-24T07:20:25;18.10;99.90
15217;DHT22;7711;46.634;14.318;2023-06-24T07:22:52;18.40;99.90
15217;DHT22;7711;46.634;14.318;2023-06-24T07:25:19;18.90;99.90
15217;DHT22;7711;46.634;14.318;2023-06-24T07:27:46;18.70;99.90
15217;DHT22;7711;46.634;14.318;2023-06-24T07:30:14;18.30;99.90
15217;DHT22;7711;46.634;14.318;2023-06-24T07:32:41;18.60;99.90
15217;DHT22;7711;46.634;14.318;2023-06-24T07:35:08;18.30;99.90
15217;DHT22;7711;46.634;14.318;2023-06-24T07:37:36;18.40;99.90
15217;DHT22;7711;46.634;14.318;2023-06-24T07:40:05;18.50;99.90
15217;DHT22;7711;46.634;14.318;2023-06-24T07:42:33;18.70;99.90
15217;DHT22;7711;46.634;14.318;2023-06-24T07:45:00;18.80;99.90
15217;DHT22;7711;46.634;14.318;2023-06-24T07:47:29;19.00;99.90
15217;DHT22;7711;46.634;14.318;2023-06-24T07:49:57;19.10;99.90
15217;DHT22;7711;46.634;14.318;2023-06-24T07:52:24;19.40;99.90
15217;DHT22;7711;46.634;14.318;2023-06-24T07:54:51;19.90;99.90
15217;DHT22;7711;46.634;14.318;2023-06-24T07:57:18;19.80;99.90
15217;DHT22;7711;46.634;14.318;2023-06-24T07:59:46;19.10;99.90
15217;DHT22;7711;46.634;14.318;2023-06-24T08:02:13;19.00;99.90
15217;DHT22;7711;46.634;14.318;2023-06-24T08:04:42;19.20;99.90
15217;DHT22;7711;46.634;14.318;2023-06-24T08:07:08;19.00;99.90
15217;DHT22;7711;46.634;14.318;2023-06-24T08:09:35;18.70;99.90
15217;DHT22;7711;46.634;14.318;2023-06-24T08:12:03;19.00;99.90
15217;DHT22;7711;46.634;14.318;2023-06-24T08:14:30;19.50;99.90
15217;DHT22;7711;46.634;14.318;2023-06-24T08:16:57;19.40;99.90
15217;DHT22;7711;46.634;14.318;2023-06-24T08:19:24;19.40;99.90
15217;DHT22;7711;46.634;14.318;2023-06-24T08:21:52;19.50;99.90
15217;DHT22;7711;46.634;14.318;2023-06-24T08:24:19;19.40;99.90
15217;DHT22;7711;46.634;14.318;2023-06-24T08:26:46;19.10;99.90
15217;DHT22;7711;46.634;14.318;2023-06-24T08:29:13;19.80;99.90
15217;DHT22;7711;46.634;14.318;2023-06-24T08:31:40;20.30;99.90
15217;DHT22;7711;46.634;14.318;2023-06-24T08:34:07;20.40;99.90
15217;DHT22;7711;46.634;14.318;2023-06-24T08:36:34;20.60;99.90
15217;DHT22;7711;46.634;14.318;2023-06-24T08:39:04;20.90;99.90
15217;DHT22;7711;46.634;14.318;2023-06-24T08:41:31;21.20;99.90
15217;DHT22;7711;46.634;14.318;2023-06-24T08:43:58;21.40;99.90
15217;DHT22;7711;46.634;14.318;2023-06-24T08:46:26;21.20;99.90
15217;DHT22;7711;46.634;14.318;2023-06-24T08:49:02;20.70;99.90
15217;DHT22;7711;46.634;14.318;2023-06-24T08:51:38;20.70;99.90
15217;DHT22;7711;46.634;14.318;2023-06-24T08:54:09;21.10;99.90
15217;DHT22;7711;46.634;14.318;2023-06-24T08:56:37;21.30;99.90
15217;DHT22;7711;46.634;14.318;2023-06-24T08:59:05;21.10;99.90
15217;DHT22;7711;46.634;14.318;2023-06-24T09:01:32;21.00;99.90
15217;DHT22;7711;46.634;14.318;2023-06-24T09:03:59;21.10;99.90
15217;DHT22;7711;46.634;14.318;2023-06-24T09:06:26;20.90;99.90
15217;DHT22;7711;46.634;14.318;2023-06-24T09:08:54;20.80;99.90
15217;DHT22;7711;46.634;14.318;2023-06-24T09:11:26;20.70;99.90
15217;DHT22;7711;46.634;14.318;2023-06-24T09:13:57;20.80;99.90
15217;DHT22;7711;46.634;14.318;2023-06-24T09:16:24;21.30;99.90
15217;DHT22;7711;46.634;14.318;2023-06-24T09:18:52;21.60;99.90
15217;DHT22;7711;46.634;14.318;2023-06-24T09:21:23;21.70;99.90
15217;DHT22;7711;46.634;14.318;2023-06-24T09:23:53;21.70;99.90
15217;DHT22;7711;46.634;14.318;2023-06-24T09:26:22;22.00;99.90
15217;DHT22;7711;46.634;14.318;2023-06-24T09:28:51;22.20;99.90
15217;DHT22;7711;46.634;14.318;2023-06-24T09:31:18;22.40;99.90
15217;DHT22;7711;46.634;14.318;2023-06-24T09:33:46;22.50;99.90
15217;DHT22;7711;46.634;14.318;2023-06-24T09:36:13;22.10;99.90
15217;DHT22;7711;46.634;14.318;2023-06-24T09:38:42;22.50;99.90
15217;DHT22;7711;46.634;14.318;2023-06-24T09:41:10;22.60;99.90
15217;DHT22;7711;46.634;14.318;2023-06-24T09:43:38;22.40;99.90
15217;DHT22;7711;46.634;14.318;2023-06-24T09:46:08;22.20;99.90
15217;DHT22;7711;46.634;14.318;2023-06-24T09:48:35;22.60;99.90
15217;DHT22;7711;46.634;14.318;2023-06-24T09:51:03;22.90;99.90
15217;DHT22;7711;46.634;14.318;2023-06-24T09:53:31;23.20;99.90
15217;DHT22;7711;46.634;14.318;2023-06-24T09:55:59;23.60;99.90
15217;DHT22;7711;46.634;14.318;2023-06-24T09:58:27;23.50;99.90
15217;DHT22;7711;46.634;14.318;2023-06-24T10:00:56;23.00;99.90
15217;DHT22;7711;46.634;14.318;2023-06-24T10:03:24;22.50;99.90
15217;DHT22;7711;46.634;14.318;2023-06-24T10:05:51;22.30;99.90
15217;DHT22;7711;46.634;14.318;2023-06-24T10:08:18;22.30;99.90
15217;DHT22;7711;46.634;14.318;2023-06-24T10:10:46;22.60;99.90
15217;DHT22;7711;46.634;14.318;2023-06-24T10:13:13;22.90;99.90
15217;DHT22;7711;46.634;14.318;2023-06-24T10:15:40;23.20;99.90
15217;DHT22;7711;46.634;14.318;2023-06-24T10:18:38;22.90;99.90
15217;DHT22;7711;46.634;14.318;2023-06-24T10:21:08;22.80;99.90
15217;DHT22;7711;46.634;14.318;2023-06-24T10:23:40;23.00;99.90
15217;DHT22;7711;46.634;14.318;2023-06-24T10:26:08;23.60;99.90
15217;DHT22;7711;46.634;14.318;2023-06-24T10:29:10;24.00;99.90
15217;DHT22;7711;46.634;14.318;2023-06-24T10:31:56;23.90;99.90
15217;DHT22;7711;46.634;14.318;2023-06-24T10:34:33;24.00;99.90
15217;DHT22;7711;46.634;14.318;2023-06-24T10:37:01;24.40;99.90
15217;DHT22;7711;46.634;14.318;2023-06-24T10:39:36;24.70;99.90
15217;DHT22;7711;46.634;14.318;2023-06-24T10:42:28;24.10;99.90
15217;DHT22;7711;46.634;14.318;2023-06-24T10:44:56;24.90;99.90
15217;DHT22;7711;46.634;14.318;2023-06-24T10:47:25;24.90;99.90
15217;DHT22;7711;46.634;14.318;2023-06-24T10:49:53;24.90;99.90
15217;DHT22;7711;46.634;14.318;2023-06-24T10:52:21;24.80;99.90
15217;DHT22;7711;46.634;14.318;2023-06-24T10:54:49;24.70;99.90
15217;DHT22;7711;46.634;14.318;2023-06-24T10:57:21;24.30;99.90
15217;DHT22;7711;46.634;14.318;2023-06-24T10:59:49;24.20;99.90
15217;DHT22;7711;46.634;14.318;2023-06-24T11:02:17;23.80;99.90
15217;DHT22;7711;46.634;14.318;2023-06-24T11:04:45;23.70;99.90
15217;DHT22;7711;46.634;14.318;2023-06-24T11:07:14;23.60;99.90
15217;DHT22;7711;46.634;14.318;2023-06-24T11:09:41;23.30;99.90
15217;DHT22;7711;46.634;14.318;2023-06-24T11:12:09;23.40;99.90
15217;DHT22;7711;46.634;14.318;2023-06-24T11:14:38;23.20;99.90
15217;DHT22;7711;46.634;14.318;2023-06-24T11:17:06;23.00;99.90
15217;DHT22;7711;46.634;14.318;2023-06-24T11:19:33;23.10;99.90
15217;DHT22;7711;46.634;14.318;2023-06-24T11:22:01;22.80;99.90
15217;DHT22;7711;46.634;14.318;2023-06-24T11:24:30;22.60;99.90
15217;DHT22;7711;46.634;14.318;2023-06-24T11:26:57;23.00;99.90
15217;DHT22;7711;46.634;14.318;2023-06-24T11:29:24;23.00;99.90
15217;DHT22;7711;46.634;14.318;2023-06-24T11:31:51;23.60;99.40
15217;DHT22;7711;46.634;14.318;2023-06-24T11:34:18;23.80;99.90
15217;DHT22;7711;46.634;14.318;2023-06-24T11:36:45;23.70;95.90
15217;DHT22;7711;46.634;14.318;2023-06-24T11:39:20;23.60;98.10
15217;DHT22;7711;46.634;14.318;2023-06-24T11:41:49;24.20;97.70
15217;DHT22;7711;46.634;14.318;2023-06-24T11:44:18;24.20;96.10
15217;DHT22;7711;46.634;14.318;2023-06-24T11:46:45;23.90;96.40
15217;DHT22;7711;46.634;14.318;2023-06-24T11:49:12;23.70;97.10
15217;DHT22;7711;46.634;14.318;2023-06-24T11:51:46;23.60;96.90
15217;DHT22;7711;46.634;14.318;2023-06-24T11:54:15;23.70;97.30
15217;DHT22;7711;46.634;14.318;2023-06-24T11:56:43;24.30;98.10
15217;DHT22;7711;46.634;14.318;2023-06-24T11:59:19;25.20;96.00
15217;DHT22;7711;46.634;14.318;2023-06-24T12:01:52;25.80;95.60
15217;DHT22;7711;46.634;14.318;2023-06-24T12:04:19;26.30;94.40
15217;DHT22;7711;46.634;14.318;2023-06-24T12:06:47;26.00;91.40
15217;DHT22;7711;46.634;14.318;2023-06-24T12:09:14;26.00;86.40
15217;DHT22;7711;46.634;14.318;2023-06-24T12:11:41;25.70;90.30
15217;DHT22;7711;46.634;14.318;2023-06-24T12:14:08;25.80;92.30
15217;DHT22;7711;46.634;14.318;2023-06-24T12:16:38;25.70;87.20
15217;DHT22;7711;46.634;14.318;2023-06-24T12:19:05;25.70;88.10
15217;DHT22;7711;46.634;14.318;2023-06-24T12:21:32;25.50;85.50
15217;DHT22;7711;46.634;14.318;2023-06-24T12:23:59;25.10;84.40
15217;DHT22;7711;46.634;14.318;2023-06-24T12:26:26;25.10;80.80
15217;DHT22;7711;46.634;14.318;2023-06-24T12:28:54;25.40;83.10
15217;DHT22;7711;46.634;14.318;2023-06-24T12:31:21;25.80;78.60
15217;DHT22;7711;46.634;14.318;2023-06-24T12:33:50;25.40;70.80
15217;DHT22;7711;46.634;14.318;2023-06-24T12:36:17;25.30;73.30
15217;DHT22;7711;46.634;14.318;2023-06-24T12:38:44;25.40;70.90
15217;DHT22;7711;46.634;14.318;2023-06-24T12:41:11;25.60;65.90
15217;DHT22;7711;46.634;14.318;2023-06-24T12:43:39;25.00;65.00
15217;DHT22;7711;46.634;14.318;2023-06-24T12:46:06;24.80;65.90
15217;DHT22;7711;46.634;14.318;2023-06-24T12:48:33;24.40;63.40
15217;DHT22;7711;46.634;14.318;2023-06-24T12:51:01;24.20;65.60
15217;DHT22;7711;46.634;14.318;2023-06-24T12:53:29;24.10;64.40
15217;DHT22;7711;46.634;14.318;2023-06-24T12:55:55;24.50;64.50
15217;DHT22;7711;46.634;14.318;2023-06-24T12:58:24;24.90;62.50
15217;DHT22;7711;46.634;14.318;2023-06-24T13:00:51;24.50;60.20
15217;DHT22;7711;46.634;14.318;2023-06-24T13:03:18;24.20;61.70
15217;DHT22;7711;46.634;14.318;2023-06-24T13:05:45;24.30;59.60
15217;DHT22;7711;46.634;14.318;2023-06-24T13:08:14;24.40;60.00
15217;DHT22;7711;46.634;14.318;2023-06-24T13:10:41;23.80;57.60
15217;DHT22;7711;46.634;14.318;2023-06-24T13:13:07;23.60;59.30
15217;DHT22;7711;46.634;14.318;2023-06-24T13:15:34;23.40;59.10
15217;DHT22;7711;46.634;14.318;2023-06-24T13:18:01;23.00;58.20
15217;DHT22;7711;46.634;14.318;2023-06-24T13:20:29;23.00;61.60
15217;DHT22;7711;46.634;14.318;2023-06-24T13:22:56;23.20;60.60
15217;DHT22;7711;46.634;14.318;2023-06-24T13:25:24;23.10;60.10
15217;DHT22;7711;46.634;14.318;2023-06-24T13:27:51;23.20;60.20
15217;DHT22;7711;46.634;14.318;2023-06-24T13:30:18;23.30;59.70
15217;DHT22;7711;46.634;14.318;2023-06-24T13:32:45;23.50;59.40
15217;DHT22;7711;46.634;14.318;2023-06-24T13:35:14;23.60;59.40
15217;DHT22;7711;46.634;14.318;2023-06-24T13:37:41;23.60;60.70
15217;DHT22;7711;46.634;14.318;2023-06-24T13:40:10;23.40;57.90
15217;DHT22;7711;46.634;14.318;2023-06-24T13:42:39;23.30;60.00
15217;DHT22;7711;46.634;14.318;2023-06-24T13:45:06;23.20;59.20
15217;DHT22;7711;46.634;14.318;2023-06-24T13:47:33;23.40;60.20
15217;DHT22;7711;46.634;14.318;2023-06-24T13:50:00;23.40;59.10
15217;DHT22;7711;46.634;14.318;2023-06-24T13:52:27;23.50;56.90
15217;DHT22;7711;46.634;14.318;2023-06-24T13:54:54;23.60;57.20
15217;DHT22;7711;46.634;14.318;2023-06-24T13:57:21;23.20;53.60
15217;DHT22;7711;46.634;14.318;2023-06-24T13:59:50;23.00;56.10
15217;DHT22;7711;46.634;14.318;2023-06-24T14:02:17;23.20;57.40
15217;DHT22;7711;46.634;14.318;2023-06-24T14:04:44;23.10;56.00
15217;DHT22;7711;46.634;14.318;2023-06-24T14:07:11;23.20;57.30
15217;DHT22;7711;46.634;14.318;2023-06-24T14:09:38;23.30;55.20
15217;DHT22;7711;46.634;14.318;2023-06-24T14:12:07;23.10;53.00
15217;DHT22;7711;46.634;14.318;2023-06-24T14:14:35;23.00;58.60
15217;DHT22;7711;46.634;14.318;2023-06-24T14:17:05;23.10;54.70
15217;DHT22;7711;46.634;14.318;2023-06-24T14:19:35;22.80;56.80
15217;DHT22;7711;46.634;14.318;2023-06-24T14:22:03;22.80;55.30
15217;DHT22;7711;46.634;14.318;2023-06-24T14:24:30;22.90;55.40
15217;DHT22;7711;46.634;14.318;2023-06-24T14:26:58;22.70;54.80
15217;DHT22;7711;46.634;14.318;2023-06-24T14:29:25;22.70;57.10
15217;DHT22;7711;46.634;14.318;2023-06-24T14:31:53;22.70;54.60
15217;DHT22;7711;46.634;14.318;2023-06-24T14:34:21;22.80;54.60
15217;DHT22;7711;46.634;14.318;2023-06-24T14:36:48;23.10;54.00
15217;DHT22;7711;46.634;14.318;2023-06-24T14:39:16;23.20;53.00
15217;DHT22;7711;46.634;14.318;2023-06-24T14:41:43;23.30;51.20
15217;DHT22;7711;46.634;14.318;2023-06-24T14:44:10;23.20;51.90
15217;DHT22;7711;46.634;14.318;2023-06-24T14:46:37;23.10;52.10
15217;DHT22;7711;46.634;14.318;2023-06-24T14:49:04;23.10;51.40
15217;DHT22;7711;46.634;14.318;2023-06-24T14:51:32;22.80;50.40
15217;DHT22;7711;46.634;14.318;2023-06-24T14:53:59;22.70;51.50
15217;DHT22;7711;46.634;14.318;2023-06-24T14:56:26;22.50;51.20
15217;DHT22;7711;46.634;14.318;2023-06-24T14:58:53;22.40;52.30
15217;DHT22;7711;46.634;14.318;2023-06-24T15:01:20;22.40;51.20
15217;DHT22;7711;46.634;14.318;2023-06-24T15:03:47;22.30;49.90
15217;DHT22;7711;46.634;14.318;2023-06-24T15:06:14;22.20;50.30
15217;DHT22;7711;46.634;14.318;2023-06-24T15:08:42;22.20;50.70
15217;DHT22;7711;46.634;14.318;2023-06-24T15:11:09;22.20;49.90
15217;DHT22;7711;46.634;14.318;2023-06-24T15:13:36;22.00;51.00
15217;DHT22;7711;46.634;14.318;2023-06-24T15:16:03;22.00;49.90
15217;DHT22;7711;46.634;14.318;2023-06-24T15:18:30;21.90;51.20
15217;DHT22;7711;46.634;14.318;2023-06-24T15:20:57;22.10;50.50
15217;DHT22;7711;46.634;14.318;2023-06-24T15:23:24;22.20;50.40
15217;DHT22;7711;46.634;14.318;2023-06-24T15:25:53;22.30;49.30
15217;DHT22;7711;46.634;14.318;2023-06-24T15:28:20;22.40;50.40
15217;DHT22;7711;46.634;14.318;2023-06-24T15:30:47;22.30;49.70
15217;DHT22;7711;46.634;14.318;2023-06-24T15:33:14;22.10;49.30
15217;DHT22;7711;46.634;14.318;2023-06-24T15:35:41;22.00;48.90
15217;DHT22;7711;46.634;14.318;2023-06-24T15:38:08;21.90;48.50
15217;DHT22;7711;46.634;14.318;2023-06-24T15:40:35;21.90;49.20
15217;DHT22;7711;46.634;14.318;2023-06-24T15:43:03;21.70;47.30
15217;DHT22;7711;46.634;14.318;2023-06-24T15:45:30;21.80;50.10